createdAt,value
2018-09-20T00:00:27.823Z,34.23
2018-09-20T00:03:01.248Z,33.92
2018-09-20T00:05:34.664Z,34.63
2018-09-20T00:08:08.397Z,34.75
2018-09-20T00:10:41.882Z,33.85
2018-09-20T00:13:15.275Z,33.98
2018-09-20T00:15:48.820Z,33.75
2018-09-20T00:18:22.223Z,35.15
2018-09-20T00:20:55.643Z,33.88
2018-09-20T00:23:29.042Z,34.08
2018-09-20T00:26:02.465Z,33.67
2018-09-20T00:28:35.931Z,34.80
2018-09-20T00:31:10.428Z,33.58
2018-09-20T00:33:43.839Z,34.43
2018-09-20T00:36:17.259Z,34.10
2018-09-20T00:38:50.692Z,33.80
2018-09-20T00:41:24.111Z,34.67
2018-09-20T00:43:57.506Z,34.18
2018-09-20T00:46:30.922Z,34.33
2018-09-20T00:49:04.371Z,34.13
2018-09-20T00:51:37.797Z,34.25
2018-09-20T00:54:11.201Z,34.50
2018-09-20T00:56:44.663Z,33.78
2018-09-20T00:59:18.091Z,34.70
2018-09-20T01:01:51.514Z,34.53
2018-09-20T01:04:24.916Z,34.53
2018-09-20T01:06:58.335Z,34.18
2018-09-20T01:09:31.736Z,35.48
2018-09-20T01:12:05.195Z,34.30
2018-09-20T01:14:38.598Z,34.00
2018-09-20T01:17:12.031Z,34.53
2018-09-20T01:19:45.443Z,34.30
2018-09-20T01:22:18.872Z,34.03
2018-09-20T01:24:52.292Z,34.60
2018-09-20T01:27:25.720Z,35.08
2018-09-20T01:29:59.143Z,34.33
2018-09-20T01:32:32.570Z,33.70
2018-09-20T01:35:06.019Z,33.80
2018-09-20T01:37:39.445Z,33.80
2018-09-20T01:40:12.859Z,34.78
2018-09-20T01:42:46.287Z,33.95
2018-09-20T01:45:19.710Z,34.15
2018-09-20T01:47:53.139Z,34.15
2018-09-20T01:50:26.543Z,33.83
2018-09-20T01:53:00.021Z,33.83
2018-09-20T01:55:33.452Z,34.33
2018-09-20T01:58:06.876Z,34.03
2018-09-20T02:00:40.308Z,34.83
2018-09-20T02:03:13.722Z,34.65
2018-09-20T02:05:47.147Z,34.92
2018-09-20T02:08:20.559Z,34.70
2018-09-20T02:10:53.959Z,34.75
2018-09-20T02:13:27.394Z,34.63
2018-09-20T02:16:00.794Z,34.63
2018-09-20T02:18:34.207Z,34.43
2018-09-20T02:21:07.630Z,34.70
2018-09-20T02:23:41.048Z,34.48
2018-09-20T02:26:14.463Z,34.88
2018-09-20T02:28:48.195Z,34.65
2018-09-20T02:31:21.611Z,34.48
2018-09-20T02:33:55.028Z,34.85
2018-09-20T02:36:28.435Z,35.20
2018-09-20T02:39:01.916Z,34.85
2018-09-20T02:41:35.383Z,33.90
2018-09-20T02:44:08.799Z,34.48
2018-09-20T02:46:42.204Z,34.78
2018-09-20T02:49:15.627Z,34.88
2018-09-20T02:51:49.036Z,33.90
2018-09-20T02:54:22.451Z,34.25
2018-09-20T02:56:55.856Z,34.35
2018-09-20T02:59:29.276Z,34.70
2018-09-20T03:02:02.790Z,34.40
2018-09-20T03:04:36.246Z,34.70
2018-09-20T03:07:09.647Z,34.78
2018-09-20T03:09:43.071Z,35.00
2018-09-20T03:12:17.550Z,35.03
2018-09-20T03:14:50.977Z,34.92
2018-09-20T03:17:24.397Z,35.40
2018-09-20T03:19:57.863Z,35.10
2018-09-20T03:22:31.340Z,34.05
2018-09-20T03:25:04.899Z,35.05
2018-09-20T03:27:38.318Z,34.92
2018-09-20T03:30:11.795Z,35.65
2018-09-20T03:32:45.296Z,35.03
2018-09-20T03:35:18.728Z,35.08
2018-09-20T03:37:52.123Z,33.80
2018-09-20T03:40:26.121Z,34.75
2018-09-20T03:42:59.514Z,33.92
2018-09-20T03:45:32.907Z,34.95
2018-09-20T03:48:06.339Z,35.25
2018-09-20T03:50:39.783Z,35.43
2018-09-20T03:53:13.203Z,34.60
2018-09-20T03:55:46.597Z,35.05
2018-09-20T03:58:19.965Z,34.75
2018-09-20T04:00:53.352Z,34.65
2018-09-20T04:03:26.727Z,35.30
2018-09-20T04:06:00.112Z,35.58
2018-09-20T04:08:33.479Z,34.58
2018-09-20T04:11:06.880Z,34.98
2018-09-20T04:13:40.260Z,35.15
2018-09-20T04:16:13.693Z,34.27
2018-09-20T04:18:47.059Z,34.67
2018-09-20T04:21:28.787Z,34.20
2018-09-20T04:24:03.407Z,35.98
2018-09-20T04:26:36.790Z,35.33
2018-09-20T04:29:11.202Z,34.75
2018-09-20T04:31:44.645Z,34.98
2018-09-20T04:34:17.980Z,33.95
2018-09-20T04:36:51.367Z,34.80
2018-09-20T04:39:24.755Z,35.33
2018-09-20T04:41:58.146Z,34.83
2018-09-20T04:44:31.599Z,34.73
2018-09-20T04:47:05.319Z,35.17
2018-09-20T04:49:38.686Z,34.65
2018-09-20T04:52:12.066Z,34.45
2018-09-20T04:54:45.434Z,35.33
2018-09-20T04:57:18.835Z,34.40
2018-09-20T04:59:52.211Z,34.43
2018-09-20T05:02:25.613Z,34.80
2018-09-20T05:04:58.979Z,34.35
2018-09-20T05:07:32.363Z,35.60
2018-09-20T05:10:05.771Z,35.20
2018-09-20T05:12:39.170Z,34.63
2018-09-20T05:15:12.544Z,35.08
2018-09-20T05:17:45.931Z,35.23
2018-09-20T05:20:19.411Z,35.05
2018-09-20T05:22:52.752Z,35.68
2018-09-20T05:25:26.123Z,35.38
2018-09-20T05:27:59.531Z,36.60
2018-09-20T05:30:32.919Z,34.75
2018-09-20T05:33:06.460Z,35.03
2018-09-20T05:35:39.973Z,35.48
2018-09-20T05:38:13.352Z,36.35
2018-09-20T05:40:46.754Z,35.78
2018-09-20T05:43:20.255Z,35.78
2018-09-20T05:45:53.618Z,35.90
2018-09-20T05:48:26.998Z,36.13
2018-09-20T05:51:00.391Z,36.53
2018-09-20T05:53:33.810Z,36.83
2018-09-20T05:56:07.182Z,36.13
2018-09-20T05:58:40.609Z,35.55
2018-09-20T06:01:13.995Z,35.55
2018-09-20T06:03:47.419Z,35.50
2018-09-20T06:06:20.790Z,35.80
2018-09-20T06:08:55.251Z,35.70
2018-09-20T06:11:28.622Z,35.95
2018-09-20T06:14:02.026Z,36.10
2018-09-20T06:16:35.403Z,35.45
2018-09-20T06:19:08.808Z,35.58
2018-09-20T06:21:42.194Z,36.30
2018-09-20T06:24:15.591Z,36.63
2018-09-20T06:26:48.995Z,35.33
2018-09-20T06:29:22.403Z,35.58
2018-09-20T06:31:55.835Z,35.50
2018-09-20T06:34:29.239Z,35.05
2018-09-20T06:37:02.651Z,35.33
2018-09-20T06:39:36.058Z,36.68
2018-09-20T06:42:09.488Z,36.15
2018-09-20T06:44:44.552Z,36.80
2018-09-20T06:47:17.947Z,37.25
2018-09-20T06:49:51.335Z,36.93
2018-09-20T06:52:24.699Z,36.00
2018-09-20T06:54:58.095Z,37.17
2018-09-20T06:57:34.358Z,35.63
2018-09-20T07:00:08.230Z,35.05
2018-09-20T07:02:41.603Z,35.35
2018-09-20T07:05:14.995Z,35.48
2018-09-20T07:07:48.370Z,36.33
2018-09-20T07:10:21.774Z,36.93
2018-09-20T07:12:55.248Z,36.15
2018-09-20T07:15:29.031Z,36.17
2018-09-20T07:18:02.410Z,35.83
2018-09-20T07:20:35.810Z,36.03
2018-09-20T07:23:09.183Z,35.70
2018-09-20T07:25:42.623Z,36.20
2018-09-20T07:28:16.002Z,35.98
2018-09-20T07:30:49.395Z,36.50
2018-09-20T07:33:22.762Z,36.68
2018-09-20T07:35:56.318Z,35.23
2018-09-20T07:38:29.710Z,37.23
2018-09-20T07:41:03.154Z,36.20
2018-09-20T07:43:36.618Z,37.20
2018-09-20T07:46:10.074Z,36.95
2018-09-20T07:48:43.451Z,36.95
2018-09-20T07:51:16.845Z,37.00
2018-09-20T07:53:50.221Z,36.75
2018-09-20T07:56:23.639Z,36.58
2018-09-20T07:58:57.112Z,37.17
2018-09-20T08:01:30.508Z,36.30
2018-09-20T08:04:03.910Z,36.65
2018-09-20T08:06:37.299Z,37.73
2018-09-20T08:09:12.011Z,36.95
2018-09-20T08:11:45.411Z,36.38
2018-09-20T08:14:18.806Z,36.40
2018-09-20T08:16:52.230Z,37.38
2018-09-20T08:19:25.647Z,36.98
2018-09-20T08:21:59.042Z,36.98
2018-09-20T08:24:32.602Z,37.05
2018-09-20T08:27:05.982Z,38.33
2018-09-20T08:29:39.385Z,38.20
2018-09-20T08:32:12.783Z,38.42
2018-09-20T08:34:46.189Z,39.33
2018-09-20T08:37:19.635Z,39.95
2018-09-20T08:39:53.011Z,40.03
2018-09-20T08:42:26.391Z,40.55
2018-09-20T08:44:59.778Z,38.45
2018-09-20T08:47:33.162Z,38.78
2018-09-20T08:50:07.320Z,38.35
2018-09-20T08:52:40.691Z,37.10
2018-09-20T08:55:14.075Z,38.17
2018-09-20T08:57:51.426Z,38.25
2018-09-20T09:00:25.408Z,37.80
2018-09-20T09:02:58.775Z,39.15
2018-09-20T09:05:32.162Z,37.90
2018-09-20T09:08:05.574Z,37.98
2018-09-20T09:10:38.959Z,37.93
2018-09-20T09:13:12.336Z,37.42
2018-09-20T09:15:45.725Z,38.10
2018-09-20T09:18:19.119Z,38.13
2018-09-20T09:20:52.510Z,36.98
2018-09-20T09:23:25.908Z,37.98
2018-09-20T09:25:59.308Z,37.58
2018-09-20T09:28:32.684Z,37.53
2018-09-20T09:31:06.090Z,38.17
2018-09-20T09:33:39.463Z,39.00
2018-09-20T09:36:12.907Z,37.28
2018-09-20T09:38:46.295Z,37.98
2018-09-20T09:41:19.685Z,37.17
2018-09-20T09:43:53.227Z,37.78
2018-09-20T09:46:26.616Z,36.77
2018-09-20T09:48:59.979Z,37.98
2018-09-20T09:51:33.395Z,37.95
2018-09-20T09:54:06.799Z,36.73
2018-09-20T09:56:40.186Z,36.77
2018-09-20T09:59:13.868Z,37.40
2018-09-20T10:01:47.331Z,37.83
2018-09-20T10:04:20.698Z,37.85
2018-09-20T10:06:54.128Z,36.85
2018-09-20T10:09:27.482Z,37.55
2018-09-20T10:12:00.942Z,37.15
2018-09-20T10:14:34.314Z,36.53
2018-09-20T10:17:07.747Z,36.48
2018-09-20T10:19:41.115Z,35.65
2018-09-20T10:22:14.515Z,36.73
2018-09-20T10:24:47.975Z,35.10
2018-09-20T10:27:21.367Z,36.53
2018-09-20T10:29:54.735Z,36.35
2018-09-20T10:32:28.126Z,36.17
2018-09-20T10:35:01.755Z,36.45
2018-09-20T10:37:35.588Z,35.68
2018-09-20T10:40:09.132Z,35.43
2018-09-20T10:42:42.518Z,35.58
2018-09-20T10:45:15.894Z,35.78
2018-09-20T10:47:49.287Z,35.52
2018-09-20T10:50:22.660Z,35.80
2018-09-20T10:52:56.046Z,35.00
2018-09-20T10:55:29.416Z,35.63
2018-09-20T10:58:02.866Z,35.35
2018-09-20T11:00:36.226Z,36.03
2018-09-20T11:03:09.639Z,35.45
2018-09-20T11:05:43.003Z,36.45
2018-09-20T11:08:16.396Z,35.73
2018-09-20T11:10:49.906Z,35.15
2018-09-20T11:13:23.270Z,35.05
2018-09-20T11:16:01.212Z,35.58
2018-09-20T11:18:34.726Z,35.75
2018-09-20T11:21:08.190Z,36.73
2018-09-20T11:23:41.825Z,36.45
2018-09-20T11:26:16.015Z,35.90
2018-09-20T11:28:49.409Z,35.43
2018-09-20T11:31:23.999Z,36.10
2018-09-20T11:33:57.601Z,35.75
2018-09-20T11:36:33.288Z,36.23
2018-09-20T11:39:08.501Z,36.15
2018-09-20T11:41:41.882Z,35.95
2018-09-20T11:44:16.477Z,35.90
2018-09-20T11:46:49.850Z,35.52
2018-09-20T11:49:23.249Z,35.83
2018-09-20T11:51:56.691Z,36.28
2018-09-20T11:54:30.078Z,35.80
2018-09-20T11:57:03.451Z,36.03
2018-09-20T11:59:36.855Z,35.28
2018-09-20T12:02:10.254Z,35.92
2018-09-20T12:04:43.664Z,35.90
2018-09-20T12:07:17.048Z,35.17
2018-09-20T12:09:50.454Z,35.35
2018-09-20T12:12:23.820Z,35.25
2018-09-20T12:14:57.211Z,35.60
2018-09-20T12:17:30.587Z,34.85
2018-09-20T12:20:04.090Z,35.10
2018-09-20T12:22:37.462Z,34.63
2018-09-20T12:25:10.873Z,34.83
2018-09-20T12:27:44.247Z,35.15
2018-09-20T12:30:17.659Z,35.40
2018-09-20T12:32:51.075Z,35.45
2018-09-20T12:35:24.482Z,35.38
2018-09-20T12:37:57.856Z,34.70
2018-09-20T12:40:31.353Z,34.98
2018-09-20T12:43:04.766Z,35.33
2018-09-20T12:45:38.155Z,35.50
2018-09-20T12:48:11.586Z,34.88
2018-09-20T12:50:45.042Z,35.28
2018-09-20T12:53:18.510Z,34.78
2018-09-20T13:00:17.658Z,34.85
2018-09-20T13:02:54.919Z,36.88
2018-09-20T13:05:28.351Z,35.55
2018-09-20T13:08:01.719Z,36.28
2018-09-20T13:10:35.147Z,35.63
2018-09-20T13:13:08.891Z,35.48
2018-09-20T13:15:42.294Z,35.05
2018-09-20T13:18:15.679Z,35.45
2018-09-20T13:20:49.129Z,35.35
2018-09-20T13:23:22.495Z,35.35
2018-09-20T13:25:55.910Z,35.58
2018-09-20T13:28:29.277Z,36.25
2018-09-20T13:31:02.680Z,35.25
2018-09-20T13:33:36.047Z,35.20
2018-09-20T13:36:09.443Z,35.78
2018-09-20T13:38:42.853Z,35.90
2018-09-20T13:41:16.336Z,34.92
2018-09-20T13:43:49.753Z,34.85
2018-09-20T13:46:23.182Z,35.00
2018-09-20T13:48:56.558Z,36.17
2018-09-20T13:51:31.318Z,35.33
2018-09-20T13:54:04.733Z,34.95
2018-09-20T13:56:38.174Z,35.38
2018-09-20T13:59:11.530Z,34.95
2018-09-20T14:01:44.918Z,35.55
2018-09-20T14:04:18.293Z,35.00
2018-09-20T14:06:51.675Z,34.45
2018-09-20T14:09:25.042Z,35.73
2018-09-20T14:11:58.434Z,34.55
2018-09-20T14:14:31.943Z,35.17
2018-09-20T14:17:05.588Z,35.13
2018-09-20T14:19:38.970Z,35.52
2018-09-20T14:22:12.365Z,35.73
2018-09-20T14:24:45.763Z,35.40
2018-09-20T14:27:19.152Z,35.17
2018-09-20T14:29:52.514Z,34.78
2018-09-20T14:32:25.890Z,35.65
2018-09-20T14:34:59.363Z,35.05
2018-09-20T14:37:32.748Z,34.78
2018-09-20T14:40:06.150Z,35.58
2018-09-20T14:42:39.548Z,34.85
2018-09-20T14:45:13.002Z,34.88
2018-09-20T14:47:46.372Z,35.30
2018-09-20T14:50:19.738Z,35.17
2018-09-20T14:52:53.140Z,35.75
2018-09-20T14:55:26.648Z,35.05
2018-09-20T14:58:00.043Z,35.52
2018-09-20T15:00:35.474Z,35.10
2018-09-20T15:03:08.851Z,35.15
2018-09-20T15:05:42.259Z,34.83
2018-09-20T15:08:15.730Z,35.10
2018-09-20T15:10:49.156Z,34.63
2018-09-20T15:13:22.562Z,35.92
2018-09-20T15:15:56.003Z,35.13
2018-09-20T15:18:29.393Z,35.05
2018-09-20T15:21:02.847Z,34.83
2018-09-20T15:23:36.235Z,35.20
2018-09-20T15:26:09.598Z,35.38
2018-09-20T15:29:14.795Z,34.65
2018-09-20T15:31:48.188Z,35.48
2018-09-20T15:34:21.551Z,35.33
2018-09-20T15:36:54.985Z,34.65
2018-09-20T15:39:28.376Z,34.67
2018-09-20T15:42:01.763Z,34.60
2018-09-20T15:44:35.170Z,35.15
2018-09-20T15:47:08.695Z,34.70
2018-09-20T15:49:42.071Z,34.98
2018-09-20T15:52:15.451Z,34.30
2018-09-20T15:54:48.859Z,34.70
2018-09-20T15:57:22.247Z,35.33
2018-09-20T15:59:56.015Z,35.30
2018-09-20T16:02:29.467Z,34.63
2018-09-20T16:05:02.867Z,35.33
2018-09-20T16:07:36.263Z,35.48
2018-09-20T16:10:09.790Z,35.45
2018-09-20T16:12:43.255Z,35.23
2018-09-20T16:15:16.649Z,34.63
2018-09-20T16:17:50.043Z,35.20
2018-09-20T16:20:23.411Z,35.33
2018-09-20T16:22:56.795Z,35.08
2018-09-20T16:25:30.154Z,35.43
2018-09-20T16:28:14.244Z,34.90
2018-09-20T16:31:14.422Z,34.60
2018-09-20T16:35:59.563Z,34.85
2018-09-20T16:38:41.051Z,35.20
2018-09-20T16:41:18.891Z,35.03
2018-09-20T16:43:52.279Z,35.55
2018-09-20T16:46:25.650Z,35.95
2018-09-20T16:48:59.080Z,35.28
2018-09-20T16:51:32.469Z,35.92
2018-09-20T16:54:05.929Z,35.20
2018-09-20T16:56:39.310Z,35.65
2018-09-20T16:59:12.694Z,35.90
2018-09-20T17:01:46.155Z,35.75
2018-09-20T17:04:19.646Z,35.23
2018-09-20T17:06:53.064Z,36.17
2018-09-20T17:09:26.475Z,36.80
2018-09-20T17:11:59.846Z,35.58
2018-09-20T17:14:33.266Z,36.75
2018-09-20T17:17:06.627Z,36.28
2018-09-20T17:19:40.026Z,36.13
2018-09-20T17:22:13.401Z,35.60
2018-09-20T17:24:48.766Z,35.88
2018-09-20T17:27:29.489Z,35.75
2018-09-20T17:30:02.924Z,36.50
2018-09-20T17:32:39.453Z,35.33
2018-09-20T17:35:15.742Z,36.53
2018-09-20T17:37:50.916Z,36.25
2018-09-20T17:40:26.177Z,36.30
2018-09-20T17:43:02.136Z,35.88
2018-09-20T17:45:35.528Z,37.58
2018-09-20T17:48:09.340Z,35.90
2018-09-20T17:50:42.835Z,35.98
2018-09-20T17:53:16.531Z,36.10
2018-09-20T17:55:50.307Z,35.78
2018-09-20T17:58:24.059Z,35.85
2018-09-20T18:00:58.930Z,36.25
2018-09-20T18:03:33.589Z,35.88
2018-09-20T18:06:07.019Z,35.65
2018-09-20T18:08:41.058Z,35.25
2018-09-20T18:11:14.766Z,36.08
2018-09-20T18:13:48.580Z,36.75
2018-09-20T18:16:22.211Z,35.95
2018-09-20T18:18:55.583Z,36.20
2018-09-20T18:21:29.010Z,35.95
2018-09-20T18:24:02.403Z,36.33
2018-09-20T18:26:35.791Z,35.98
2018-09-20T18:29:09.169Z,36.50
2018-09-20T18:31:42.569Z,35.68
2018-09-20T18:34:16.043Z,36.28
2018-09-20T18:36:49.411Z,35.70
2018-09-20T18:39:22.879Z,35.85
2018-09-20T18:41:56.338Z,36.33
2018-09-20T18:44:29.723Z,36.08
2018-09-20T18:47:03.110Z,36.42
2018-09-20T18:49:36.563Z,35.13
2018-09-20T18:52:09.979Z,36.25
2018-09-20T18:54:43.430Z,35.70
2018-09-20T18:57:16.875Z,35.38
2018-09-20T18:59:50.242Z,35.15
2018-09-20T19:02:23.664Z,36.17
2018-09-20T19:04:57.175Z,35.78
2018-09-20T19:07:30.708Z,35.95
2018-09-20T19:10:04.060Z,36.23
2018-09-20T19:12:37.672Z,36.58
2018-09-20T19:15:11.392Z,36.33
2018-09-20T19:17:44.787Z,36.38
2018-09-20T19:20:18.159Z,35.75
2018-09-20T19:22:51.602Z,35.95
2018-09-20T19:25:25.026Z,36.23
2018-09-20T19:27:58.431Z,35.88
2018-09-20T19:30:31.835Z,35.50
2018-09-20T19:33:05.295Z,35.48
2018-09-20T19:35:38.675Z,36.30
2018-09-20T19:38:12.071Z,35.83
2018-09-20T19:40:45.454Z,36.68
2018-09-20T19:43:18.987Z,36.08
2018-09-20T19:45:52.444Z,36.42
2018-09-20T19:48:25.830Z,36.10
2018-09-20T19:50:59.235Z,35.50
2018-09-20T19:53:32.870Z,35.80
2018-09-20T19:56:06.264Z,35.28
2018-09-20T19:58:39.668Z,36.28
2018-09-20T20:01:13.055Z,36.35
2018-09-20T20:03:46.441Z,35.95
2018-09-20T20:06:19.883Z,36.28
2018-09-20T20:08:53.411Z,35.58
2018-09-20T20:11:26.886Z,35.80
2018-09-20T20:14:00.275Z,35.55
2018-09-20T20:16:33.662Z,36.25
2018-09-20T20:19:07.378Z,35.70
2018-09-20T20:21:40.789Z,35.65
2018-09-20T20:24:14.195Z,36.08
2018-09-20T20:26:47.571Z,36.33
2018-09-20T20:29:20.968Z,35.78
2018-09-20T20:31:54.371Z,36.05
2018-09-20T20:34:27.762Z,35.52
2018-09-20T20:37:01.127Z,35.90
2018-09-20T20:39:34.539Z,35.83
2018-09-20T20:42:07.906Z,36.17
2018-09-20T20:44:41.298Z,36.53
2018-09-20T20:47:14.663Z,36.55
2018-09-20T20:49:48.068Z,35.92
2018-09-20T20:52:21.444Z,36.77
2018-09-20T20:54:54.830Z,36.45
2018-09-20T20:57:28.208Z,35.83
2018-09-20T21:00:01.603Z,35.83
2018-09-20T21:02:34.976Z,36.42
2018-09-20T21:05:08.397Z,35.75
2018-09-20T21:07:41.887Z,36.83
2018-09-20T21:10:15.275Z,36.55
2018-09-20T21:12:48.651Z,36.15
2018-09-20T21:15:22.036Z,35.92
2018-09-20T21:17:55.412Z,36.63
2018-09-20T21:20:28.800Z,37.03
2018-09-20T21:23:02.219Z,36.20
2018-09-20T21:25:35.598Z,36.70
2018-09-20T21:28:08.975Z,35.65
2018-09-20T21:30:42.363Z,36.93
2018-09-20T21:33:15.731Z,35.68
2018-09-20T21:35:49.134Z,35.95
2018-09-20T21:38:22.498Z,36.35
2018-09-20T21:40:55.919Z,36.23
2018-09-20T21:43:29.484Z,35.80
2018-09-20T21:46:02.867Z,35.50
2018-09-20T21:48:36.251Z,36.03
2018-09-20T21:51:09.668Z,36.00
2018-09-20T21:53:43.024Z,34.90
2018-09-20T21:56:16.483Z,35.15
2018-09-20T21:58:49.903Z,36.17
2018-09-20T22:01:23.264Z,36.45
2018-09-20T22:03:56.632Z,36.65
2018-09-20T22:06:30.023Z,35.92
2018-09-20T22:09:04.879Z,38.30
2018-09-20T22:11:38.727Z,37.65
2018-09-20T22:14:21.886Z,37.30
2018-09-20T22:16:55.276Z,37.58
2018-09-20T22:19:28.639Z,36.73
2018-09-20T22:22:02.023Z,37.67
2018-09-20T22:27:23.753Z,38.28
2018-09-20T22:29:59.383Z,38.05
2018-09-20T22:32:33.430Z,38.95
2018-09-20T22:35:06.930Z,37.90
2018-09-20T22:37:40.358Z,39.55
2018-09-20T22:40:13.760Z,38.23
2018-09-20T22:42:47.146Z,38.90
2018-09-20T22:45:20.536Z,38.48
2018-09-20T22:47:53.926Z,38.38
2018-09-20T22:50:27.311Z,38.15
2018-09-20T22:53:00.682Z,38.78
2018-09-20T22:55:34.091Z,38.28
2018-09-20T22:58:07.462Z,37.42
2018-09-20T23:00:40.844Z,37.30
2018-09-20T23:03:17.902Z,38.63
2018-09-20T23:05:51.295Z,36.88
2018-09-20T23:08:24.660Z,37.58
2018-09-20T23:10:58.463Z,37.20
2018-09-20T23:13:32.919Z,37.10
2018-09-20T23:16:06.482Z,36.85
2018-09-20T23:18:39.851Z,37.28
2018-09-20T23:21:13.258Z,37.08
2018-09-20T23:23:46.620Z,36.70
2018-09-20T23:26:20.239Z,36.65
2018-09-20T23:28:54.243Z,36.77
2018-09-20T23:31:27.627Z,37.25
2018-09-20T23:34:01.366Z,36.63
2018-09-20T23:36:34.751Z,37.53
2018-09-20T23:39:10.251Z,36.75
2018-09-20T23:41:43.641Z,37.13
2018-09-20T23:44:17.019Z,37.10
2018-09-20T23:46:50.411Z,36.88
2018-09-20T23:49:23.774Z,37.15
2018-09-20T23:51:57.170Z,36.10
2018-09-20T23:54:30.601Z,37.05
2018-09-20T23:57:03.995Z,36.42
2018-09-20T23:59:37.375Z,36.83
